Accueil
METAR-TAF:

METAR-TAF

Aéroports :

Harrisburg, Pennsylvanie, États-Unis

latitude: 40-13-02N, longitude: 076-51-05W, altitude: 106 m

Observation

Le bulletin a été fait il y a 30 minutes, à 19:56 UTC
Vent 21 kt de ouest/nord-ouest avec des rafales jusqu'à 33 kt
Température 9°C
Humidité 34%
Pression 1004 hPa
Visibilité: 16.1 km
Ciel couvert à une hauteur de 6000 ft

METAR: KCXY 101956Z 30021G33KT 10SM OVC060 09/M06 A2966 RMK AO2 PK WND 27037/1921 SLP048 T00891056

Heure: 16:26 (20:26 UTC)


TAF: absent

Observations et prévisions météorologiques de plus de 4000 aéroports (messages METAR et TAF).

Les stations disponibles sont représentées par des disques jaunes et rouges sur la carte.

Passer la souris dessus pour voir le nom de la station.

Cliquer dessus pour voir les observations et prévisions météorologiques.

Pour changer de carte: cliquez sur les boutons verts avec une croix noire pour zoomer, sur le bouton vert avec un tiret pour effectuer un zoom arrière, ou sur les flèches vertes pour les cartes adjacentes.


METAR-TAF: